Budaghers, New Mexico
Current Conditions -  °F | °C
As of 2:15 AM on Saturday 22 Nov 2014 (Local Time) from KAEG Reporting Station
Clear Clear  
Wind Chill: 28°   Ceiling: Unl
Heat Index: 28°   Visibility: 10mi
Dew Point: 14°   Wind: 0mph
Humidity: 54%   Direction: NA
Pressure: 30.1"   Gusts: NA
Location:  35.4656°N, 106.615°W
Report Text: KAEG 220915Z AUTO 00000KT 10SM CLR M02/M10 A3010 RMK AO2 LTG DSNT SW T10211102
Loading
Personal Weather Stations






























Interactive Weather Map New forecast layout! Learn more

10-Day Weather Forecast

Advertisements
Track Severe Weather on mobile